createdAt,value
2023-02-22T00:00:59.875Z,95.37
2023-02-22T00:03:32.323Z,95.18
2023-02-22T00:06:05.683Z,94.75
2023-02-22T00:08:36.122Z,95.31
2023-02-22T00:11:08.944Z,95.43
2023-02-22T00:13:38.215Z,95.05
2023-02-22T00:16:06.465Z,94.84
2023-02-22T00:18:33.594Z,94.33
2023-02-22T00:21:01.685Z,95.50
2023-02-22T00:23:31.082Z,95.69
2023-02-22T00:26:00.175Z,96.04
2023-02-22T00:28:27.461Z,96.06
2023-02-22T00:30:55.047Z,96.68
2023-02-22T00:33:22.828Z,96.76
2023-02-22T00:35:50.108Z,97.36
2023-02-22T00:38:19.444Z,97.38
2023-02-22T00:40:46.708Z,97.75
2023-02-22T00:43:14.691Z,97.67
2023-02-22T00:45:42.345Z,97.14
2023-02-22T00:48:10.547Z,97.35
2023-02-22T00:50:38.030Z,96.63
2023-02-22T00:53:07.296Z,96.48
2023-02-22T00:55:37.065Z,96.35
2023-02-22T00:58:05.311Z,95.53
2023-02-22T01:00:41.716Z,95.01
2023-02-22T01:03:13.533Z,95.28
2023-02-22T01:05:40.770Z,95.54
2023-02-22T01:08:10.781Z,95.59
2023-02-22T01:10:39.586Z,96.35
2023-02-22T01:13:12.435Z,96.54
2023-02-22T01:15:43.231Z,96.71
2023-02-22T01:18:12.561Z,96.41
2023-02-22T01:20:39.682Z,96.07
2023-02-22T01:23:08.042Z,95.83
2023-02-22T01:25:36.073Z,96.50
2023-02-22T01:28:05.716Z,96.55
2023-02-22T01:30:35.826Z,96.55
2023-02-22T01:33:06.146Z,96.65
2023-02-22T01:35:37.188Z,96.95
2023-02-22T01:38:04.270Z,96.87
2023-02-22T01:40:39.266Z,97.84
2023-02-22T01:43:20.077Z,98.00
2023-02-22T01:45:52.976Z,98.41
2023-02-22T01:48:49.144Z,97.85
2023-02-22T01:51:18.734Z,97.35
2023-02-22T01:53:59.871Z,96.71
2023-02-22T01:56:29.732Z,97.12
2023-02-22T01:59:10.281Z,96.63
2023-02-22T02:01:42.937Z,96.68
2023-02-22T02:04:19.555Z,97.31
2023-02-22T02:06:47.361Z,98.04
2023-02-22T02:09:34.683Z,98.43
2023-02-22T02:12:05.056Z,98.09
2023-02-22T02:14:32.487Z,97.38
2023-02-22T02:17:01.485Z,97.09
2023-02-22T02:20:11.596Z,97.28
2023-02-22T02:22:57.258Z,97.16
2023-02-22T02:26:03.854Z,97.43
2023-02-22T02:28:39.652Z,97.94
2023-02-22T02:31:31.230Z,98.74
2023-02-22T02:34:50.552Z,98.66
2023-02-22T02:37:57.549Z,98.93
2023-02-22T02:40:50.894Z,99.48
2023-02-22T02:43:31.987Z,99.45
2023-02-22T02:46:09.702Z,99.46
2023-02-22T02:48:43.563Z,99.67
2023-02-22T02:51:14.526Z,100.00
2023-02-22T02:53:46.540Z,100.00
2023-02-22T02:56:13.386Z,100.00
2023-02-22T02:58:50.464Z,100.00
2023-02-22T03:01:50.215Z,100.00
2023-02-22T03:04:45.139Z,100.00
2023-02-22T03:07:45.793Z,100.00
2023-02-22T03:11:05.324Z,100.00
2023-02-22T03:14:08.513Z,100.00
2023-02-22T03:16:52.401Z,100.00
2023-02-22T03:19:40.387Z,100.00
2023-02-22T03:22:38.162Z,100.00
2023-02-22T03:25:15.343Z,100.00
2023-02-22T03:27:50.383Z,100.00
2023-02-22T03:30:26.960Z,100.00
2023-02-22T03:33:09.018Z,100.00
2023-02-22T03:35:42.437Z,100.00
2023-02-22T03:38:13.734Z,100.00
2023-02-22T03:40:45.970Z,100.00
2023-02-22T03:43:23.183Z,100.00
2023-02-22T03:45:51.238Z,100.00
2023-02-22T03:48:27.504Z,100.00
2023-02-22T03:50:54.733Z,100.00
2023-02-22T03:53:23.246Z,100.00
2023-02-22T03:55:52.646Z,100.00
2023-02-22T03:58:22.931Z,100.00
2023-02-22T04:00:53.378Z,100.00
2023-02-22T04:03:21.943Z,100.00
2023-02-22T04:05:49.499Z,100.00
2023-02-22T04:08:17.432Z,100.00
2023-02-22T04:10:44.479Z,100.00
2023-02-22T04:13:11.916Z,100.00
2023-02-22T04:15:38.867Z,100.00
2023-02-22T04:18:05.991Z,100.00
2023-02-22T04:20:34.841Z,100.00
2023-02-22T04:23:01.804Z,100.00
2023-02-22T04:25:28.697Z,100.00
2023-02-22T04:27:55.725Z,100.00
2023-02-22T04:30:23.394Z,99.90
2023-02-22T04:32:50.395Z,99.83
2023-02-22T04:35:17.347Z,100.00
2023-02-22T04:37:44.524Z,100.00
2023-02-22T04:40:11.714Z,100.00
2023-02-22T04:42:39.847Z,100.00
2023-02-22T04:45:09.222Z,100.00
2023-02-22T04:47:37.427Z,100.00
2023-02-22T04:50:07.483Z,100.00
2023-02-22T04:52:34.503Z,100.00
2023-02-22T04:55:01.531Z,100.00
2023-02-22T04:57:28.508Z,100.00
2023-02-22T04:59:55.616Z,100.00
2023-02-22T05:02:22.764Z,100.00
2023-02-22T05:04:50.474Z,100.00
2023-02-22T05:07:17.705Z,100.00
2023-02-22T05:09:44.636Z,100.00
2023-02-22T05:12:11.491Z,100.00
2023-02-22T05:14:39.046Z,100.00
2023-02-22T05:17:06.208Z,100.00
2023-02-22T05:19:33.100Z,100.00
2023-02-22T05:22:00.285Z,100.00
2023-02-22T05:24:27.384Z,100.00
2023-02-22T05:26:54.404Z,100.00
2023-02-22T05:29:21.359Z,100.00
2023-02-22T05:31:48.479Z,100.00
2023-02-22T05:34:16.047Z,100.00
2023-02-22T05:36:42.987Z,100.00
2023-02-22T05:39:09.973Z,100.00
2023-02-22T05:41:36.995Z,100.00
2023-02-22T05:44:04.200Z,100.00
2023-02-22T05:46:31.265Z,100.00
2023-02-22T05:48:58.202Z,100.00
2023-02-22T05:51:25.181Z,100.00
2023-02-22T05:53:52.575Z,100.00
2023-02-22T05:56:28.668Z,100.00
2023-02-22T05:58:56.952Z,100.00
2023-02-22T06:01:24.510Z,100.00
2023-02-22T06:03:52.401Z,100.00
2023-02-22T06:06:22.234Z,100.00
2023-02-22T06:08:49.925Z,100.00
2023-02-22T06:11:17.242Z,100.00
2023-02-22T06:13:51.563Z,100.00
2023-02-22T06:16:21.329Z,100.00
2023-02-22T06:18:49.134Z,100.00
2023-02-22T06:21:17.530Z,100.00
2023-02-22T06:23:44.685Z,100.00
2023-02-22T06:26:11.648Z,100.00
2023-02-22T06:28:38.604Z,100.00
2023-02-22T06:31:05.856Z,100.00
2023-02-22T06:33:33.030Z,100.00
2023-02-22T06:36:00.233Z,100.00
2023-02-22T06:38:27.786Z,100.00
2023-02-22T06:40:57.903Z,100.00
2023-02-22T06:43:25.768Z,100.00
2023-02-22T06:45:53.691Z,100.00
2023-02-22T06:48:20.736Z,100.00
2023-02-22T06:50:47.733Z,100.00
2023-02-22T06:53:14.642Z,100.00
2023-02-22T06:55:41.535Z,100.00
2023-02-22T06:58:08.430Z,100.00
2023-02-22T07:00:35.466Z,100.00
2023-02-22T07:03:04.714Z,100.00
2023-02-22T07:05:31.652Z,100.00
2023-02-22T07:08:05.309Z,100.00
2023-02-22T07:10:34.318Z,100.00
2023-02-22T07:13:02.301Z,100.00
2023-02-22T07:15:31.582Z,100.00
2023-02-22T07:17:59.498Z,100.00
2023-02-22T07:20:29.683Z,100.00
2023-02-22T07:22:56.637Z,100.00
2023-02-22T07:25:24.159Z,100.00
2023-02-22T07:27:52.493Z,100.00
2023-02-22T07:30:34.048Z,100.00
2023-02-22T07:33:07.606Z,100.00
2023-02-22T07:35:39.565Z,100.00
2023-02-22T07:38:08.210Z,100.00
2023-02-22T07:40:35.882Z,100.00
2023-02-22T07:43:16.238Z,100.00
2023-02-22T07:45:44.019Z,100.00
2023-02-22T07:48:16.927Z,100.00
2023-02-22T07:50:44.420Z,100.00
2023-02-22T07:53:15.944Z,100.00
2023-02-22T07:55:43.634Z,100.00
2023-02-22T07:58:15.157Z,100.00
2023-02-22T08:00:44.163Z,100.00
2023-02-22T08:03:13.462Z,100.00
2023-02-22T08:05:44.631Z,100.00
2023-02-22T08:08:11.594Z,100.00
2023-02-22T08:10:38.605Z,100.00
2023-02-22T08:13:06.065Z,100.00
2023-02-22T08:15:39.225Z,100.00
2023-02-22T08:18:12.525Z,100.00
2023-02-22T08:20:42.333Z,100.00
2023-02-22T08:23:11.161Z,100.00
2023-02-22T08:25:38.058Z,100.00
2023-02-22T08:28:11.879Z,100.00
2023-02-22T08:30:42.774Z,100.00
2023-02-22T08:33:14.381Z,100.00
2023-02-22T08:35:41.812Z,100.00
2023-02-22T08:38:16.980Z,100.00
2023-02-22T08:40:43.991Z,100.00
2023-02-22T08:43:11.060Z,100.00
2023-02-22T08:45:38.021Z,100.00
2023-02-22T08:48:05.129Z,100.00
2023-02-22T08:50:33.692Z,100.00
2023-02-22T08:53:02.739Z,99.72
2023-02-22T08:55:34.416Z,99.66
2023-02-22T08:58:03.100Z,98.86
2023-02-22T09:00:33.285Z,100.00
2023-02-22T09:03:10.660Z,99.62
2023-02-22T09:05:37.634Z,99.39
2023-02-22T09:08:05.151Z,99.73
2023-02-22T09:10:34.459Z,99.50
2023-02-22T09:13:02.328Z,99.03
2023-02-22T09:15:30.645Z,98.62
2023-02-22T09:17:57.637Z,98.91
2023-02-22T09:20:25.970Z,98.95
2023-02-22T09:22:53.861Z,99.31
2023-02-22T09:25:21.380Z,99.89
2023-02-22T09:27:53.268Z,99.62
2023-02-22T09:30:32.136Z,99.21
2023-02-22T09:33:06.994Z,99.01
2023-02-22T09:35:36.281Z,99.09
2023-02-22T09:38:08.167Z,99.63
2023-02-22T09:40:45.097Z,100.00
2023-02-22T09:44:01.132Z,100.00
2023-02-22T09:46:42.056Z,100.00
2023-02-22T09:49:21.985Z,100.00
2023-02-22T09:52:18.741Z,100.00
2023-02-22T09:55:30.864Z,99.99
2023-02-22T09:58:02.841Z,99.78
2023-02-22T10:00:34.293Z,99.59
2023-02-22T10:03:21.071Z,99.12
2023-02-22T10:06:11.845Z,99.55
2023-02-22T10:08:39.437Z,100.00
2023-02-22T10:11:23.328Z,100.00
2023-02-22T10:14:19.957Z,100.00
2023-02-22T10:17:00.968Z,100.00
2023-02-22T10:19:57.873Z,100.00
2023-02-22T10:23:07.042Z,100.00
2023-02-22T10:25:38.102Z,100.00
2023-02-22T10:28:27.528Z,100.00
2023-02-22T10:31:04.449Z,100.00
2023-02-22T10:33:38.575Z,99.82
2023-02-22T10:36:06.398Z,98.82
2023-02-22T10:38:35.000Z,98.42
2023-02-22T10:41:11.030Z,98.18
2023-02-22T10:43:41.666Z,99.50
2023-02-22T10:46:14.750Z,100.00
2023-02-22T10:48:45.980Z,98.42
2023-02-22T10:51:14.038Z,99.86
2023-02-22T10:53:41.600Z,99.81
2023-02-22T10:56:24.503Z,98.67
2023-02-22T10:59:02.440Z,97.27
2023-02-22T11:01:32.603Z,96.15
2023-02-22T11:04:14.771Z,97.42
2023-02-22T11:06:46.353Z,95.66
2023-02-22T11:09:22.691Z,95.33
2023-02-22T11:12:07.625Z,93.90
2023-02-22T11:14:34.495Z,92.92
2023-02-22T11:17:07.097Z,92.29
2023-02-22T11:19:36.357Z,91.89
2023-02-22T11:22:19.404Z,91.98
2023-02-22T11:24:56.139Z,93.20
2023-02-22T11:27:33.683Z,91.96
2023-02-22T11:30:32.532Z,92.13
2023-02-22T11:33:23.389Z,90.33
2023-02-22T11:35:59.503Z,91.02
2023-02-22T11:38:30.557Z,90.81
2023-02-22T11:41:32.322Z,89.83
2023-02-22T11:44:23.629Z,90.67
2023-02-22T11:46:53.470Z,89.77
2023-02-22T11:49:20.485Z,89.07
2023-02-22T11:52:28.241Z,88.60
2023-02-22T11:55:36.516Z,88.02
2023-02-22T11:58:40.845Z,87.37
2023-02-22T12:01:22.386Z,88.37
2023-02-22T12:04:40.987Z,87.93
2023-02-22T12:07:26.586Z,87.73
2023-02-22T12:10:18.986Z,87.65
2023-02-22T12:13:12.252Z,88.17
2023-02-22T12:16:21.728Z,86.66
2023-02-22T12:19:31.008Z,84.87
2023-02-22T12:22:04.501Z,83.55
2023-02-22T12:24:41.378Z,83.60
2023-02-22T12:27:20.569Z,82.68
2023-02-22T12:29:56.870Z,83.58
2023-02-22T12:32:35.749Z,83.33
2023-02-22T12:35:14.700Z,83.79
2023-02-22T12:38:14.811Z,83.59
2023-02-22T12:41:38.425Z,84.45
2023-02-22T12:44:35.465Z,83.85
2023-02-22T12:47:05.552Z,82.99
2023-02-22T12:49:44.108Z,82.09
2023-02-22T12:52:57.861Z,81.51
2023-02-22T12:55:32.503Z,82.49
2023-02-22T12:58:39.803Z,80.98
2023-02-22T13:01:24.234Z,80.80
2023-02-22T13:03:51.545Z,81.44
2023-02-22T13:06:34.367Z,81.35
2023-02-22T13:09:14.208Z,81.54
2023-02-22T13:12:14.886Z,81.56
2023-02-22T13:15:14.808Z,82.14
2023-02-22T13:18:12.625Z,80.65
2023-02-22T13:21:04.760Z,77.28
2023-02-22T13:23:46.714Z,78.09
2023-02-22T13:26:23.825Z,77.60
2023-02-22T13:29:21.700Z,78.26
2023-02-22T13:31:48.762Z,79.02
2023-02-22T13:34:36.770Z,78.50
2023-02-22T13:37:12.667Z,77.98
2023-02-22T13:40:13.729Z,78.43
2023-02-22T13:43:11.437Z,78.02
2023-02-22T13:46:12.891Z,78.02
2023-02-22T13:48:58.306Z,77.46
2023-02-22T13:52:00.033Z,76.53
2023-02-22T13:54:46.229Z,77.18
2023-02-22T13:57:25.055Z,76.39
2023-02-22T14:00:20.974Z,76.76
2023-02-22T14:03:07.904Z,76.16
2023-02-22T14:05:41.554Z,76.02
2023-02-22T14:08:28.925Z,76.30
2023-02-22T14:10:56.946Z,76.17
2023-02-22T14:13:33.293Z,75.71
2023-02-22T14:16:00.387Z,74.46
2023-02-22T14:18:36.389Z,73.54
2023-02-22T14:21:13.064Z,71.07
2023-02-22T14:23:41.896Z,70.45
2023-02-22T14:26:27.442Z,70.26
2023-02-22T14:29:15.571Z,69.93
2023-02-22T14:31:46.412Z,71.54
2023-02-22T14:34:22.962Z,72.04
2023-02-22T14:37:05.221Z,73.01
2023-02-22T14:39:35.204Z,72.79
2023-02-22T14:42:24.415Z,72.70
2023-02-22T14:45:12.746Z,72.99
2023-02-22T14:47:44.033Z,72.56
2023-02-22T14:50:45.158Z,72.28
2023-02-22T14:53:30.145Z,72.99
2023-02-22T14:56:06.982Z,73.08
2023-02-22T14:58:45.891Z,74.23
2023-02-22T15:01:48.931Z,75.58
2023-02-22T15:04:27.816Z,76.35
2023-02-22T15:06:57.661Z,77.00
2023-02-22T15:09:31.070Z,76.76
2023-02-22T15:12:05.521Z,76.92
2023-02-22T15:14:38.959Z,77.50
2023-02-22T15:17:24.858Z,78.30
2023-02-22T15:19:52.672Z,79.39
2023-02-22T15:22:31.599Z,79.85
2023-02-22T15:25:02.103Z,79.41
2023-02-22T15:27:29.618Z,79.61
2023-02-22T15:30:05.083Z,79.40
2023-02-22T15:32:49.933Z,79.32
2023-02-22T15:35:30.130Z,79.72
2023-02-22T15:38:15.860Z,79.86
2023-02-22T15:40:45.134Z,80.38
2023-02-22T15:43:28.533Z,80.43
2023-02-22T15:45:57.836Z,79.79
2023-02-22T15:48:26.812Z,79.67
2023-02-22T15:51:10.558Z,79.93
2023-02-22T15:53:49.716Z,80.14
2023-02-22T15:56:24.535Z,80.76
2023-02-22T15:58:59.577Z,80.71
2023-02-22T16:01:27.073Z,81.11
2023-02-22T16:03:57.718Z,80.67
2023-02-22T16:06:35.357Z,80.88
2023-02-22T16:09:15.678Z,81.01
2023-02-22T16:11:45.402Z,82.00
2023-02-22T16:14:31.734Z,81.80
2023-02-22T16:17:30.883Z,81.34
2023-02-22T16:20:00.894Z,81.77
2023-02-22T16:22:34.482Z,82.36
2023-02-22T16:25:19.705Z,82.82
2023-02-22T16:27:50.863Z,84.01
2023-02-22T16:30:23.968Z,84.01
2023-02-22T16:32:53.572Z,84.10
2023-02-22T16:35:20.591Z,84.07
2023-02-22T16:37:50.295Z,84.58
2023-02-22T16:40:26.295Z,84.79
2023-02-22T16:42:53.412Z,84.68
2023-02-22T16:45:22.052Z,85.73
2023-02-22T16:47:53.673Z,86.02
2023-02-22T16:50:22.013Z,85.84
2023-02-22T16:52:48.857Z,86.11
2023-02-22T16:55:17.903Z,87.00
2023-02-22T16:57:45.022Z,87.61
2023-02-22T17:00:19.029Z,87.75
2023-02-22T17:02:45.879Z,87.87
2023-02-22T17:05:16.669Z,88.75
2023-02-22T17:07:43.617Z,90.03
2023-02-22T17:10:20.064Z,91.15
2023-02-22T17:12:50.500Z,90.84
2023-02-22T17:15:34.967Z,90.38
2023-02-22T17:18:13.934Z,91.38
2023-02-22T17:20:40.873Z,91.71
2023-02-22T17:23:09.854Z,91.40
2023-02-22T17:25:43.239Z,91.86
2023-02-22T17:28:10.496Z,91.32
2023-02-22T17:30:39.155Z,92.02
2023-02-22T17:33:09.582Z,92.34
2023-02-22T17:35:39.403Z,90.75
2023-02-22T17:38:07.416Z,91.52
2023-02-22T17:40:37.183Z,92.78
2023-02-22T17:43:08.748Z,93.16
2023-02-22T17:45:39.491Z,91.69
2023-02-22T17:48:08.933Z,92.25
2023-02-22T17:50:41.353Z,95.65
2023-02-22T17:53:10.903Z,94.59
2023-02-22T17:55:40.693Z,92.56
2023-02-22T17:58:14.626Z,93.27
2023-02-22T18:00:49.883Z,95.10
2023-02-22T18:03:25.308Z,94.00
2023-02-22T18:05:59.962Z,93.75
2023-02-22T18:08:30.042Z,95.98
2023-02-22T18:10:57.076Z,95.28
2023-02-22T18:13:27.001Z,93.60
2023-02-22T18:16:00.074Z,92.86
2023-02-22T18:18:27.875Z,93.03
2023-02-22T18:20:59.422Z,93.60
2023-02-22T18:23:31.084Z,96.07
2023-02-22T18:26:15.765Z,96.17
2023-02-22T18:28:43.350Z,95.42
2023-02-22T18:31:16.539Z,95.43
2023-02-22T18:33:46.633Z,95.03
2023-02-22T18:36:14.685Z,95.52
2023-02-22T18:38:43.353Z,94.98
2023-02-22T18:41:16.937Z,95.85
2023-02-22T18:43:46.307Z,95.83
2023-02-22T18:46:18.222Z,96.33
2023-02-22T18:48:52.600Z,97.30
2023-02-22T18:51:19.538Z,100.00
2023-02-22T18:53:50.102Z,98.28
2023-02-22T18:56:21.880Z,97.89
2023-02-22T18:59:00.855Z,97.21
2023-02-22T19:01:30.003Z,98.51
2023-02-22T19:03:57.261Z,97.75
2023-02-22T19:06:24.322Z,97.52
2023-02-22T19:08:51.770Z,97.44
2023-02-22T19:11:23.780Z,98.22
2023-02-22T19:13:54.402Z,97.68
2023-02-22T19:16:24.094Z,98.11
2023-02-22T19:18:54.288Z,97.72
2023-02-22T19:21:21.730Z,97.92
2023-02-22T19:23:49.365Z,98.31
2023-02-22T19:26:25.363Z,97.98
2023-02-22T19:28:55.075Z,97.60
2023-02-22T19:31:31.951Z,98.16
2023-02-22T19:34:05.897Z,98.04
2023-02-22T19:36:33.102Z,98.11
2023-02-22T19:39:02.697Z,98.82
2023-02-22T19:41:30.840Z,98.12
2023-02-22T19:43:58.284Z,98.14
2023-02-22T19:46:25.550Z,98.95
2023-02-22T19:48:55.275Z,99.48
2023-02-22T19:51:27.907Z,99.69
2023-02-22T19:54:02.741Z,99.48
2023-02-22T19:56:31.243Z,99.32
2023-02-22T19:59:12.681Z,99.60
2023-02-22T20:01:44.105Z,100.00
2023-02-22T20:04:18.194Z,100.00
2023-02-22T20:06:46.705Z,100.00
2023-02-22T20:09:17.916Z,100.00
2023-02-22T20:11:48.456Z,100.00
2023-02-22T20:14:25.202Z,100.00
2023-02-22T20:16:53.718Z,100.00
2023-02-22T20:19:22.611Z,100.00
2023-02-22T20:21:49.762Z,100.00
2023-02-22T20:24:18.400Z,100.00
2023-02-22T20:26:46.874Z,100.00
2023-02-22T20:29:14.964Z,100.00
2023-02-22T20:31:44.375Z,100.00
2023-02-22T20:34:11.772Z,100.00
2023-02-22T20:36:41.527Z,100.00
2023-02-22T20:39:13.336Z,100.00
2023-02-22T20:41:45.829Z,100.00
2023-02-22T20:44:16.331Z,100.00
2023-02-22T20:46:45.037Z,100.00
2023-02-22T20:49:17.142Z,100.00
2023-02-22T20:51:45.590Z,100.00
2023-02-22T20:54:13.150Z,100.00
2023-02-22T20:56:42.885Z,100.00
2023-02-22T20:59:13.100Z,100.00
2023-02-22T21:01:40.464Z,100.00
2023-02-22T21:04:10.044Z,100.00
2023-02-22T21:06:38.984Z,100.00
2023-02-22T21:09:08.672Z,100.00
2023-02-22T21:11:35.802Z,100.00
2023-02-22T21:14:03.354Z,100.00
2023-02-22T21:16:36.484Z,100.00
2023-02-22T21:19:07.086Z,100.00
2023-02-22T21:21:35.290Z,100.00
2023-02-22T21:24:02.433Z,100.00
2023-02-22T21:26:32.873Z,100.00
2023-02-22T21:29:03.879Z,100.00
2023-02-22T21:31:31.689Z,100.00
2023-02-22T21:34:00.332Z,100.00
2023-02-22T21:36:28.578Z,100.00
2023-02-22T21:39:03.074Z,100.00
2023-02-22T21:41:31.164Z,100.00
2023-02-22T21:43:59.610Z,100.00
2023-02-22T21:46:28.982Z,100.00
2023-02-22T21:48:58.600Z,100.00
2023-02-22T21:51:32.036Z,100.00
2023-02-22T21:54:03.126Z,100.00
2023-02-22T21:56:32.345Z,100.00
2023-02-22T21:59:15.611Z,100.00
2023-02-22T22:01:50.196Z,100.00
2023-02-22T22:04:22.245Z,100.00
2023-02-22T22:06:52.267Z,100.00
2023-02-22T22:09:21.875Z,100.00
2023-02-22T22:11:54.796Z,100.00
2023-02-22T22:14:24.241Z,100.00
2023-02-22T22:16:55.917Z,100.00
2023-02-22T22:19:23.005Z,100.00
2023-02-22T22:21:54.021Z,100.00
2023-02-22T22:24:22.736Z,100.00
2023-02-22T22:26:54.434Z,100.00
2023-02-22T22:29:24.287Z,100.00
2023-02-22T22:31:51.886Z,100.00
2023-02-22T22:34:19.515Z,100.00
2023-02-22T22:36:46.532Z,100.00
2023-02-22T22:39:13.350Z,100.00
2023-02-22T22:41:42.233Z,100.00
2023-02-22T22:44:09.873Z,100.00
2023-02-22T22:46:40.036Z,100.00
2023-02-22T22:49:13.404Z,100.00
2023-02-22T22:51:41.309Z,100.00
2023-02-22T22:54:11.980Z,100.00
2023-02-22T22:56:39.240Z,100.00
2023-02-22T22:59:07.997Z,100.00
2023-02-22T23:01:44.421Z,100.00
2023-02-22T23:04:16.829Z,100.00
2023-02-22T23:06:54.414Z,100.00
2023-02-22T23:09:29.602Z,100.00
2023-02-22T23:12:09.027Z,100.00
2023-02-22T23:14:45.190Z,100.00
2023-02-22T23:17:26.782Z,100.00
2023-02-22T23:19:53.637Z,100.00
2023-02-22T23:22:21.238Z,100.00
2023-02-22T23:24:48.413Z,100.00
2023-02-22T23:27:15.436Z,100.00
2023-02-22T23:29:46.531Z,100.00
2023-02-22T23:32:14.272Z,100.00
2023-02-22T23:34:41.461Z,100.00
2023-02-22T23:37:10.957Z,100.00
2023-02-22T23:39:38.341Z,100.00
2023-02-22T23:42:08.650Z,100.00
2023-02-22T23:44:35.589Z,100.00
2023-02-22T23:47:03.840Z,100.00
2023-02-22T23:49:37.922Z,100.00
2023-02-22T23:52:07.096Z,100.00
2023-02-22T23:54:40.181Z,100.00
2023-02-22T23:57:08.833Z,100.00
2023-02-22T23:59:40.315Z,100.00
